sensor_id;sensor_type;location;lat;lon;timestamp;pressure;altitude;pressure_sealevel;temperature;humidity
55373;BME280;41249;47.838;16.490;2023-03-11T00:00:12;97246.31;;;5.20;41.89
55373;BME280;41249;47.838;16.490;2023-03-11T00:02:39;97241.00;;;5.02;41.53
55373;BME280;41249;47.838;16.490;2023-03-11T00:05:07;97239.47;;;5.01;42.05
55373;BME280;41249;47.838;16.490;2023-03-11T00:07:34;97246.66;;;4.92;41.79
55373;BME280;41249;47.838;16.490;2023-03-11T00:10:00;97230.25;;;4.81;41.66
55373;BME280;41249;47.838;16.490;2023-03-11T00:12:27;97235.41;;;4.79;42.47
55373;BME280;41249;47.838;16.490;2023-03-11T00:14:53;97240.88;;;4.79;42.13
55373;BME280;41249;47.838;16.490;2023-03-11T00:17:20;97241.25;;;4.81;42.45
55373;BME280;41249;47.838;16.490;2023-03-11T00:19:46;97249.06;;;4.86;41.67
55373;BME280;41249;47.838;16.490;2023-03-11T00:22:13;97234.19;;;4.80;41.38
55373;BME280;41249;47.838;16.490;2023-03-11T00:24:39;97234.28;;;4.73;41.31
55373;BME280;41249;47.838;16.490;2023-03-11T00:27:06;97224.06;;;4.73;41.72
55373;BME280;41249;47.838;16.490;2023-03-11T00:29:32;97230.38;;;4.70;41.89
55373;BME280;41249;47.838;16.490;2023-03-11T00:31:59;97233.97;;;4.64;42.40
55373;BME280;41249;47.838;16.490;2023-03-11T00:34:25;97235.53;;;4.65;42.71
55373;BME280;41249;47.838;16.490;2023-03-11T00:36:52;97232.03;;;4.64;41.60
55373;BME280;41249;47.838;16.490;2023-03-11T00:39:19;97239.06;;;4.65;41.71
55373;BME280;41249;47.838;16.490;2023-03-11T00:41:45;97236.69;;;4.67;41.85
55373;BME280;41249;47.838;16.490;2023-03-11T00:44:12;97235.03;;;4.77;41.83
55373;BME280;41249;47.838;16.490;2023-03-11T00:46:38;97243.63;;;4.79;41.98
55373;BME280;41249;47.838;16.490;2023-03-11T00:49:05;97248.00;;;4.77;42.46
55373;BME280;41249;47.838;16.490;2023-03-11T00:51:31;97254.22;;;4.81;41.89
55373;BME280;41249;47.838;16.490;2023-03-11T00:53:59;97241.25;;;4.81;41.90
55373;BME280;41249;47.838;16.490;2023-03-11T00:56:26;97252.88;;;4.96;41.92
55373;BME280;41249;47.838;16.490;2023-03-11T00:58:53;97263.06;;;4.99;42.52
55373;BME280;41249;47.838;16.490;2023-03-11T01:01:19;97321.19;;;4.97;41.85
55373;BME280;41249;47.838;16.490;2023-03-11T01:03:46;97325.16;;;4.96;41.44
55373;BME280;41249;47.838;16.490;2023-03-11T01:06:13;97345.94;;;4.56;43.15
55373;BME280;41249;47.838;16.490;2023-03-11T01:08:40;97329.66;;;4.28;44.64
55373;BME280;41249;47.838;16.490;2023-03-11T01:11:07;97305.56;;;3.95;45.32
55373;BME280;41249;47.838;16.490;2023-03-11T01:13:34;97330.78;;;3.79;45.72
55373;BME280;41249;47.838;16.490;2023-03-11T01:16:01;97303.81;;;3.67;44.71
55373;BME280;41249;47.838;16.490;2023-03-11T01:18:28;97314.00;;;3.63;45.70
55373;BME280;41249;47.838;16.490;2023-03-11T01:20:55;97312.88;;;3.50;45.00
55373;BME280;41249;47.838;16.490;2023-03-11T01:23:21;97323.84;;;3.50;44.72
55373;BME280;41249;47.838;16.490;2023-03-11T01:25:48;97317.25;;;3.37;44.84
55373;BME280;41249;47.838;16.490;2023-03-11T01:28:15;97328.66;;;3.32;45.19
55373;BME280;41249;47.838;16.490;2023-03-11T01:30:42;97323.56;;;3.27;45.28
55373;BME280;41249;47.838;16.490;2023-03-11T01:33:13;97336.50;;;3.30;44.67
55373;BME280;41249;47.838;16.490;2023-03-11T01:35:40;97328.28;;;3.30;44.62
55373;BME280;41249;47.838;16.490;2023-03-11T01:38:09;97329.41;;;3.25;46.03
55373;BME280;41249;47.838;16.490;2023-03-11T01:40:41;97318.47;;;3.22;45.13
55373;BME280;41249;47.838;16.490;2023-03-11T01:46:19;97363.94;;;3.09;45.79
55373;BME280;41249;47.838;16.490;2023-03-11T01:48:49;97291.50;;;3.06;45.29
55373;BME280;41249;47.838;16.490;2023-03-11T01:51:37;97320.88;;;2.99;45.17
55373;BME280;41249;47.838;16.490;2023-03-11T01:54:08;97311.09;;;3.01;46.22
55373;BME280;41249;47.838;16.490;2023-03-11T01:56:37;97331.06;;;2.98;45.29
55373;BME280;41249;47.838;16.490;2023-03-11T01:59:05;97339.66;;;3.04;45.68
55373;BME280;41249;47.838;16.490;2023-03-11T02:01:34;97359.22;;;3.06;45.72
55373;BME280;41249;47.838;16.490;2023-03-11T02:04:03;97399.19;;;3.07;45.66
55373;BME280;41249;47.838;16.490;2023-03-11T02:06:30;97389.78;;;3.15;45.49
55373;BME280;41249;47.838;16.490;2023-03-11T02:08:58;97393.66;;;3.21;44.22
55373;BME280;41249;47.838;16.490;2023-03-11T02:11:28;97395.63;;;3.31;44.38
55373;BME280;41249;47.838;16.490;2023-03-11T02:13:58;97378.34;;;3.41;43.88
55373;BME280;41249;47.838;16.490;2023-03-11T02:16:26;97399.91;;;3.50;43.66
55373;BME280;41249;47.838;16.490;2023-03-11T02:18:52;97402.25;;;3.44;43.50
55373;BME280;41249;47.838;16.490;2023-03-11T02:21:27;97387.38;;;3.38;43.17
55373;BME280;41249;47.838;16.490;2023-03-11T02:24:01;97398.34;;;3.38;44.94
55373;BME280;41249;47.838;16.490;2023-03-11T02:26:55;97386.25;;;3.07;44.20
55373;BME280;41249;47.838;16.490;2023-03-11T02:29:22;97378.84;;;2.87;45.58
55373;BME280;41249;47.838;16.490;2023-03-11T02:31:50;97372.59;;;2.75;45.62
55373;BME280;41249;47.838;16.490;2023-03-11T02:34:31;97391.75;;;2.68;44.75
55373;BME280;41249;47.838;16.490;2023-03-11T02:36:59;97403.13;;;2.63;45.66
55373;BME280;41249;47.838;16.490;2023-03-11T02:39:41;97421.91;;;2.47;45.99
55373;BME280;41249;47.838;16.490;2023-03-11T02:44:41;97424.97;;;2.28;46.05
55373;BME280;41249;47.838;16.490;2023-03-11T02:47:08;97435.16;;;2.24;46.85
55373;BME280;41249;47.838;16.490;2023-03-11T02:49:35;97448.81;;;2.17;47.56
55373;BME280;41249;47.838;16.490;2023-03-11T02:52:02;97471.06;;;1.98;48.42
55373;BME280;41249;47.838;16.490;2023-03-11T02:54:29;97477.56;;;1.69;50.19
55373;BME280;41249;47.838;16.490;2023-03-11T02:56:56;97498.84;;;1.38;51.20
55373;BME280;41249;47.838;16.490;2023-03-11T02:59:23;97501.84;;;1.19;51.88
55373;BME280;41249;47.838;16.490;2023-03-11T03:01:49;97507.16;;;0.98;52.30
55373;BME280;41249;47.838;16.490;2023-03-11T03:04:16;97521.88;;;0.87;52.02
55373;BME280;41249;47.838;16.490;2023-03-11T03:06:43;97526.41;;;0.72;52.42
55373;BME280;41249;47.838;16.490;2023-03-11T03:09:09;97512.91;;;0.46;52.03
55373;BME280;41249;47.838;16.490;2023-03-11T03:11:36;97518.91;;;0.29;52.36
55373;BME280;41249;47.838;16.490;2023-03-11T03:14:02;97515.09;;;0.33;52.21
55373;BME280;41249;47.838;16.490;2023-03-11T03:16:29;97560.25;;;0.27;52.35
55373;BME280;41249;47.838;16.490;2023-03-11T03:18:56;97553.19;;;0.22;51.84
55373;BME280;41249;47.838;16.490;2023-03-11T03:21:22;97543.31;;;0.14;51.28
55373;BME280;41249;47.838;16.490;2023-03-11T03:23:49;97558.03;;;0.06;51.10
55373;BME280;41249;47.838;16.490;2023-03-11T03:26:15;97575.56;;;0.05;50.65
55373;BME280;41249;47.838;16.490;2023-03-11T03:28:42;97567.75;;;0.04;51.09
55373;BME280;41249;47.838;16.490;2023-03-11T03:31:09;97572.47;;;0.07;50.62
55373;BME280;41249;47.838;16.490;2023-03-11T03:33:36;97569.72;;;0.07;50.75
55373;BME280;41249;47.838;16.490;2023-03-11T03:36:08;97566.19;;;0.03;50.75
55373;BME280;41249;47.838;16.490;2023-03-11T03:38:35;97577.03;;;-0.01;50.46
55373;BME280;41249;47.838;16.490;2023-03-11T03:41:01;97572.31;;;-0.04;50.34
55373;BME280;41249;47.838;16.490;2023-03-11T03:43:28;97555.13;;;-0.08;50.70
55373;BME280;41249;47.838;16.490;2023-03-11T03:48:22;97563.53;;;-0.20;50.78
55373;BME280;41249;47.838;16.490;2023-03-11T03:50:50;97530.03;;;-0.20;51.30
55373;BME280;41249;47.838;16.490;2023-03-11T03:53:16;97542.41;;;-0.26;51.62
55373;BME280;41249;47.838;16.490;2023-03-11T03:55:43;97546.56;;;-0.36;51.05
55373;BME280;41249;47.838;16.490;2023-03-11T03:58:10;97555.13;;;-0.37;50.55
55373;BME280;41249;47.838;16.490;2023-03-11T04:00:36;97544.59;;;-0.39;50.75
55373;BME280;41249;47.838;16.490;2023-03-11T04:03:03;97556.94;;;-0.45;50.45
55373;BME280;41249;47.838;16.490;2023-03-11T04:05:30;97564.66;;;-0.51;50.83
55373;BME280;41249;47.838;16.490;2023-03-11T04:07:57;97573.25;;;-0.49;50.69
55373;BME280;41249;47.838;16.490;2023-03-11T04:10:23;97570.50;;;-0.49;51.23
55373;BME280;41249;47.838;16.490;2023-03-11T04:12:50;97578.66;;;-0.52;51.15
55373;BME280;41249;47.838;16.490;2023-03-11T04:15:17;97567.03;;;-0.49;50.60
55373;BME280;41249;47.838;16.490;2023-03-11T04:17:43;97583.41;;;-0.46;48.16
55373;BME280;41249;47.838;16.490;2023-03-11T04:20:10;97575.72;;;-0.40;47.93
55373;BME280;41249;47.838;16.490;2023-03-11T04:22:37;97558.53;;;-0.44;47.11
55373;BME280;41249;47.838;16.490;2023-03-11T04:25:04;97577.13;;;-0.50;45.46
55373;BME280;41249;47.838;16.490;2023-03-11T04:27:30;97580.66;;;-0.49;45.31
55373;BME280;41249;47.838;16.490;2023-03-11T04:29:57;97581.72;;;-0.54;44.79
55373;BME280;41249;47.838;16.490;2023-03-11T04:32:23;97578.25;;;-0.54;42.79
55373;BME280;41249;47.838;16.490;2023-03-11T04:34:50;97584.00;;;-0.59;44.24
55373;BME280;41249;47.838;16.490;2023-03-11T04:37:17;97589.28;;;-0.70;45.36
55373;BME280;41249;47.838;16.490;2023-03-11T04:39:43;97593.00;;;-0.81;45.12
55373;BME280;41249;47.838;16.490;2023-03-11T04:42:10;97592.00;;;-0.92;41.89
55373;BME280;41249;47.838;16.490;2023-03-11T04:44:39;97592.63;;;-1.02;43.82
55373;BME280;41249;47.838;16.490;2023-03-11T04:47:05;97603.44;;;-1.06;41.63
55373;BME280;41249;47.838;16.490;2023-03-11T04:49:32;97607.19;;;-1.14;42.54
55373;BME280;41249;47.838;16.490;2023-03-11T04:51:58;97626.31;;;-1.11;42.61
55373;BME280;41249;47.838;16.490;2023-03-11T04:54:25;97608.53;;;-1.04;42.57
55373;BME280;41249;47.838;16.490;2023-03-11T04:56:52;97608.84;;;-1.10;39.48
55373;BME280;41249;47.838;16.490;2023-03-11T04:59:18;97633.84;;;-1.04;41.51
55373;BME280;41249;47.838;16.490;2023-03-11T05:01:45;97604.19;;;-1.09;40.34
55373;BME280;41249;47.838;16.490;2023-03-11T05:04:11;97605.69;;;-1.12;39.73
55373;BME280;41249;47.838;16.490;2023-03-11T05:06:38;97611.47;;;-1.13;40.23
55373;BME280;41249;47.838;16.490;2023-03-11T05:09:05;97608.72;;;-1.17;38.10
55373;BME280;41249;47.838;16.490;2023-03-11T05:11:33;97600.97;;;-1.15;39.11
55373;BME280;41249;47.838;16.490;2023-03-11T05:13:59;97605.25;;;-1.14;38.56
55373;BME280;41249;47.838;16.490;2023-03-11T05:16:26;97612.03;;;-1.27;39.23
55373;BME280;41249;47.838;16.490;2023-03-11T05:18:53;97609.88;;;-1.37;38.97
55373;BME280;41249;47.838;16.490;2023-03-11T05:21:19;97618.47;;;-1.35;39.79
55373;BME280;41249;47.838;16.490;2023-03-11T05:23:46;97631.78;;;-1.30;39.52
55373;BME280;41249;47.838;16.490;2023-03-11T05:26:12;97619.97;;;-1.37;39.51
55373;BME280;41249;47.838;16.490;2023-03-11T05:28:39;97607.50;;;-1.38;40.13
55373;BME280;41249;47.838;16.490;2023-03-11T05:31:09;97620.34;;;-1.39;39.43
55373;BME280;41249;47.838;16.490;2023-03-11T05:33:36;97622.34;;;-1.36;40.86
55373;BME280;41249;47.838;16.490;2023-03-11T05:36:07;97608.09;;;-1.29;38.64
55373;BME280;41249;47.838;16.490;2023-03-11T05:38:35;97622.53;;;-1.25;39.66
55373;BME280;41249;47.838;16.490;2023-03-11T05:41:02;97632.00;;;-1.19;40.04
55373;BME280;41249;47.838;16.490;2023-03-11T05:43:29;97610.25;;;-1.16;39.45
55373;BME280;41249;47.838;16.490;2023-03-11T05:45:55;97592.91;;;-1.08;39.18
55373;BME280;41249;47.838;16.490;2023-03-11T05:48:22;97612.06;;;-1.04;40.19
55373;BME280;41249;47.838;16.490;2023-03-11T05:50:49;97622.28;;;-0.97;39.38
55373;BME280;41249;47.838;16.490;2023-03-11T05:53:15;97668.34;;;-0.89;39.34
55373;BME280;41249;47.838;16.490;2023-03-11T05:55:42;97576.66;;;-0.81;38.61
55373;BME280;41249;47.838;16.490;2023-03-11T05:58:08;97593.81;;;-0.77;38.02
55373;BME280;41249;47.838;16.490;2023-03-11T06:00:35;97616.56;;;-0.66;37.76
55373;BME280;41249;47.838;16.490;2023-03-11T06:03:02;97630.69;;;-0.61;38.37
55373;BME280;41249;47.838;16.490;2023-03-11T06:05:28;97634.69;;;-0.55;37.52
55373;BME280;41249;47.838;16.490;2023-03-11T06:07:55;97616.84;;;-0.49;38.23
55373;BME280;41249;47.838;16.490;2023-03-11T06:10:22;97632.53;;;-0.42;37.81
55373;BME280;41249;47.838;16.490;2023-03-11T06:12:48;97657.09;;;-0.42;37.58
55373;BME280;41249;47.838;16.490;2023-03-11T06:15:15;97621.75;;;-0.35;38.10
55373;BME280;41249;47.838;16.490;2023-03-11T06:17:41;97616.38;;;-0.31;38.76
55373;BME280;41249;47.838;16.490;2023-03-11T06:20:08;97602.50;;;-0.19;39.36
55373;BME280;41249;47.838;16.490;2023-03-11T06:22:35;97608.78;;;-0.15;38.56
55373;BME280;41249;47.838;16.490;2023-03-11T06:25:05;97642.00;;;-0.10;39.16
55373;BME280;41249;47.838;16.490;2023-03-11T06:27:32;97617.94;;;-0.04;39.23
55373;BME280;41249;47.838;16.490;2023-03-11T06:29:58;97599.66;;;-0.00;38.54
55373;BME280;41249;47.838;16.490;2023-03-11T06:32:25;97603.91;;;-0.03;39.44
55373;BME280;41249;47.838;16.490;2023-03-11T06:34:52;97587.16;;;-0.01;39.06
55373;BME280;41249;47.838;16.490;2023-03-11T06:37:18;97621.47;;;-0.00;38.72
55373;BME280;41249;47.838;16.490;2023-03-11T06:39:46;97613.03;;;0.08;39.82
55373;BME280;41249;47.838;16.490;2023-03-11T06:42:12;97640.81;;;0.17;37.44
55373;BME280;41249;47.838;16.490;2023-03-11T06:44:39;97650.63;;;0.22;39.08
55373;BME280;41249;47.838;16.490;2023-03-11T06:47:06;97674.47;;;0.29;39.42
55373;BME280;41249;47.838;16.490;2023-03-11T06:49:32;97676.88;;;0.34;38.78
55373;BME280;41249;47.838;16.490;2023-03-11T06:51:59;97623.50;;;0.36;37.73
55373;BME280;41249;47.838;16.490;2023-03-11T06:54:25;97673.41;;;0.33;37.71
55373;BME280;41249;47.838;16.490;2023-03-11T06:56:52;97661.06;;;0.46;38.66
55373;BME280;41249;47.838;16.490;2023-03-11T06:59:18;97659.22;;;0.54;38.95
55373;BME280;41249;47.838;16.490;2023-03-11T07:01:46;97662.38;;;0.56;39.29
55373;BME280;41249;47.838;16.490;2023-03-11T07:04:12;97672.59;;;0.62;39.09
55373;BME280;41249;47.838;16.490;2023-03-11T07:06:40;97676.13;;;0.63;37.94
55373;BME280;41249;47.838;16.490;2023-03-11T07:09:07;97673.78;;;0.65;38.75
55373;BME280;41249;47.838;16.490;2023-03-11T07:11:33;97667.59;;;0.68;38.74
55373;BME280;41249;47.838;16.490;2023-03-11T07:14:00;97698.94;;;0.81;38.64
55373;BME280;41249;47.838;16.490;2023-03-11T07:16:29;97741.31;;;0.68;36.96
55373;BME280;41249;47.838;16.490;2023-03-11T07:18:57;97709.38;;;0.72;37.35
55373;BME280;41249;47.838;16.490;2023-03-11T07:21:27;97765.16;;;0.71;37.58
55373;BME280;41249;47.838;16.490;2023-03-11T07:23:56;97727.84;;;0.82;38.09
55373;BME280;41249;47.838;16.490;2023-03-11T07:26:24;97724.63;;;1.03;37.92
55373;BME280;41249;47.838;16.490;2023-03-11T07:28:53;97752.41;;;1.08;37.61
55373;BME280;41249;47.838;16.490;2023-03-11T07:31:31;97746.94;;;1.08;38.43
55373;BME280;41249;47.838;16.490;2023-03-11T07:34:00;97769.63;;;1.12;38.27
55373;BME280;41249;47.838;16.490;2023-03-11T07:36:27;97775.13;;;1.16;37.59
55373;BME280;41249;47.838;16.490;2023-03-11T07:38:56;97763.84;;;1.21;37.65
55373;BME280;41249;47.838;16.490;2023-03-11T07:41:31;97742.50;;;1.33;38.51
55373;BME280;41249;47.838;16.490;2023-03-11T07:43:59;97778.22;;;1.47;37.55
55373;BME280;41249;47.838;16.490;2023-03-11T07:46:27;97784.63;;;1.62;38.36
55373;BME280;41249;47.838;16.490;2023-03-11T07:48:54;97672.84;;;1.61;36.93
55373;BME280;41249;47.838;16.490;2023-03-11T07:51:24;97779.72;;;1.41;37.28
55373;BME280;41249;47.838;16.490;2023-03-11T07:53:53;97758.59;;;1.38;37.56
55373;BME280;41249;47.838;16.490;2023-03-11T07:56:21;97763.63;;;1.33;38.33
55373;BME280;41249;47.838;16.490;2023-03-11T07:58:49;97746.56;;;1.46;37.46
55373;BME280;41249;47.838;16.490;2023-03-11T08:01:21;97761.41;;;1.45;37.34
55373;BME280;41249;47.838;16.490;2023-03-11T08:03:50;97789.50;;;1.42;37.36
55373;BME280;41249;47.838;16.490;2023-03-11T08:06:27;97773.03;;;1.35;37.36
55373;BME280;41249;47.838;16.490;2023-03-11T08:08:54;97753.00;;;1.65;37.33
55373;BME280;41249;47.838;16.490;2023-03-11T08:11:21;97762.13;;;1.79;36.92
55373;BME280;41249;47.838;16.490;2023-03-11T08:13:48;97767.16;;;1.74;37.55
55373;BME280;41249;47.838;16.490;2023-03-11T08:16:18;97768.69;;;1.71;38.15
55373;BME280;41249;47.838;16.490;2023-03-11T08:18:47;97770.22;;;1.69;37.71
55373;BME280;41249;47.838;16.490;2023-03-11T08:21:17;97791.38;;;1.72;37.74
55373;BME280;41249;47.838;16.490;2023-03-11T08:23:44;97795.69;;;1.73;37.24
55373;BME280;41249;47.838;16.490;2023-03-11T08:26:16;97816.63;;;1.95;36.94
55373;BME280;41249;47.838;16.490;2023-03-11T08:28:43;97793.13;;;1.94;36.90
55373;BME280;41249;47.838;16.490;2023-03-11T08:31:15;97816.56;;;1.91;36.10
55373;BME280;41249;47.838;16.490;2023-03-11T08:33:45;97816.38;;;1.74;36.62
55373;BME280;41249;47.838;16.490;2023-03-11T08:36:12;97813.50;;;1.96;37.04
55373;BME280;41249;47.838;16.490;2023-03-11T08:38:38;97812.22;;;2.27;37.12
55373;BME280;41249;47.838;16.490;2023-03-11T08:41:05;97854.41;;;2.23;35.98
55373;BME280;41249;47.838;16.490;2023-03-11T08:43:32;97837.75;;;1.98;35.62
55373;BME280;41249;47.838;16.490;2023-03-11T08:46:03;97836.19;;;1.97;35.91
55373;BME280;41249;47.838;16.490;2023-03-11T08:48:32;97856.03;;;2.31;35.74
55373;BME280;41249;47.838;16.490;2023-03-11T08:50:59;97834.91;;;2.31;34.23
55373;BME280;41249;47.838;16.490;2023-03-11T08:53:26;97856.16;;;2.45;33.60
55373;BME280;41249;47.838;16.490;2023-03-11T08:55:52;97871.91;;;2.58;33.88
55373;BME280;41249;47.838;16.490;2023-03-11T08:58:19;97838.09;;;2.88;33.72
55373;BME280;41249;47.838;16.490;2023-03-11T09:00:46;97862.16;;;3.19;34.26
55373;BME280;41249;47.838;16.490;2023-03-11T09:03:13;97871.81;;;2.95;33.55
55373;BME280;41249;47.838;16.490;2023-03-11T09:05:40;97831.50;;;2.99;34.13
55373;BME280;41249;47.838;16.490;2023-03-11T09:08:07;97853.66;;;3.45;34.30
55373;BME280;41249;47.838;16.490;2023-03-11T09:10:33;97881.66;;;3.82;33.43
55373;BME280;41249;47.838;16.490;2023-03-11T09:13:00;97886.78;;;3.87;32.54
55373;BME280;41249;47.838;16.490;2023-03-11T09:15:27;97867.38;;;3.45;33.10
55373;BME280;41249;47.838;16.490;2023-03-11T09:17:53;97854.63;;;3.05;33.33
55373;BME280;41249;47.838;16.490;2023-03-11T09:20:21;97854.97;;;2.97;32.84
55373;BME280;41249;47.838;16.490;2023-03-11T09:22:48;97880.53;;;3.15;34.11
55373;BME280;41249;47.838;16.490;2023-03-11T09:25:15;97861.38;;;3.22;33.80
55373;BME280;41249;47.838;16.490;2023-03-11T09:27:41;97853.50;;;3.10;33.88
55373;BME280;41249;47.838;16.490;2023-03-11T09:30:09;97892.28;;;3.12;34.28
55373;BME280;41249;47.838;16.490;2023-03-11T09:32:36;97908.41;;;3.24;33.82
55373;BME280;41249;47.838;16.490;2023-03-11T09:35:03;97887.38;;;3.46;33.87
55373;BME280;41249;47.838;16.490;2023-03-11T09:37:30;97890.16;;;3.53;34.07
55373;BME280;41249;47.838;16.490;2023-03-11T09:39:56;97885.03;;;3.44;34.67
55373;BME280;41249;47.838;16.490;2023-03-11T09:42:48;97883.25;;;3.90;34.07
55373;BME280;41249;47.838;16.490;2023-03-11T09:45:23;97885.63;;;4.02;32.87
55373;BME280;41249;47.838;16.490;2023-03-11T09:48:06;97873.47;;;4.03;33.15
55373;BME280;41249;47.838;16.490;2023-03-11T09:54:04;97872.25;;;3.08;33.58
55373;BME280;41249;47.838;16.490;2023-03-11T09:56:33;97882.88;;;2.58;33.78
55373;BME280;41249;47.838;16.490;2023-03-11T09:59:07;97900.69;;;2.35;35.02
55373;BME280;41249;47.838;16.490;2023-03-11T10:01:41;97886.63;;;2.40;34.61
55373;BME280;41249;47.838;16.490;2023-03-11T10:04:16;97893.59;;;2.30;35.56
55373;BME280;41249;47.838;16.490;2023-03-11T10:06:47;97911.78;;;2.12;35.75
55373;BME280;41249;47.838;16.490;2023-03-11T10:09:34;97913.06;;;2.22;34.93
55373;BME280;41249;47.838;16.490;2023-03-11T10:21:03;97965.25;;;2.02;34.42
55373;BME280;41249;47.838;16.490;2023-03-11T10:26:35;97950.19;;;1.86;35.37
55373;BME280;41249;47.838;16.490;2023-03-11T10:29:13;97938.44;;;1.82;36.19
55373;BME280;41249;47.838;16.490;2023-03-11T10:32:09;97925.28;;;1.94;36.53
55373;BME280;41249;47.838;16.490;2023-03-11T10:34:44;97943.72;;;2.01;35.35
55373;BME280;41249;47.838;16.490;2023-03-11T10:37:18;97949.72;;;2.13;35.07
55373;BME280;41249;47.838;16.490;2023-03-11T10:39:47;97939.97;;;2.16;35.98
55373;BME280;41249;47.838;16.490;2023-03-11T10:42:17;97945.78;;;2.11;36.02
55373;BME280;41249;47.838;16.490;2023-03-11T10:44:45;97931.31;;;2.10;36.46
55373;BME280;41249;47.838;16.490;2023-03-11T10:47:23;97937.91;;;2.02;36.25
55373;BME280;41249;47.838;16.490;2023-03-11T10:49:51;97991.09;;;2.05;37.17
55373;BME280;41249;47.838;16.490;2023-03-11T10:52:18;97959.00;;;2.02;36.73
55373;BME280;41249;47.838;16.490;2023-03-11T10:54:47;97970.94;;;2.20;36.35
55373;BME280;41249;47.838;16.490;2023-03-11T10:57:25;97958.53;;;2.30;35.96
55373;BME280;41249;47.838;16.490;2023-03-11T10:59:57;97979.63;;;2.29;36.04
55373;BME280;41249;47.838;16.490;2023-03-11T11:02:28;97973.81;;;2.34;36.37
55373;BME280;41249;47.838;16.490;2023-03-11T11:07:47;97986.69;;;2.30;36.56
55373;BME280;41249;47.838;16.490;2023-03-11T11:10:18;98000.38;;;2.30;35.83
55373;BME280;41249;47.838;16.490;2023-03-11T11:12:56;97978.19;;;2.05;35.55
55373;BME280;41249;47.838;16.490;2023-03-11T11:15:26;98008.19;;;1.95;35.66
55373;BME280;41249;47.838;16.490;2023-03-11T11:17:56;97996.38;;;1.91;37.07
55373;BME280;41249;47.838;16.490;2023-03-11T11:20:25;97988.47;;;1.82;36.74
55373;BME280;41249;47.838;16.490;2023-03-11T11:23:00;97996.44;;;1.65;36.53
55373;BME280;41249;47.838;16.490;2023-03-11T11:25:33;97990.06;;;1.27;36.24
55373;BME280;41249;47.838;16.490;2023-03-11T11:30:30;98006.50;;;1.31;36.84
55373;BME280;41249;47.838;16.490;2023-03-11T11:33:59;97996.44;;;1.38;36.91
55373;BME280;41249;47.838;16.490;2023-03-11T11:36:13;98006.72;;;1.45;37.42
55373;BME280;41249;47.838;16.490;2023-03-11T11:38:40;98008.47;;;1.30;36.87
55373;BME280;41249;47.838;16.490;2023-03-11T11:41:12;98027.72;;;1.15;38.09
55373;BME280;41249;47.838;16.490;2023-03-11T11:43:59;98022.94;;;1.08;38.24
55373;BME280;41249;47.838;16.490;2023-03-11T11:46:47;98019.31;;;1.01;38.26
55373;BME280;41249;47.838;16.490;2023-03-11T11:51:48;98029.34;;;0.93;38.26
55373;BME280;41249;47.838;16.490;2023-03-11T11:54:39;98040.03;;;0.82;37.95
55373;BME280;41249;47.838;16.490;2023-03-11T11:57:11;98055.78;;;0.89;38.98
55373;BME280;41249;47.838;16.490;2023-03-11T11:59:38;98063.72;;;0.75;38.53
55373;BME280;41249;47.838;16.490;2023-03-11T12:07:41;98098.78;;;0.73;38.61
55373;BME280;41249;47.838;16.490;2023-03-11T12:10:59;98057.81;;;0.73;38.93
55373;BME280;41249;47.838;16.490;2023-03-11T12:15:42;98081.22;;;0.74;39.49
55373;BME280;41249;47.838;16.490;2023-03-11T12:18:20;98082.69;;;0.68;39.20
55373;BME280;41249;47.838;16.490;2023-03-11T12:20:54;98088.28;;;0.75;38.97
55373;BME280;41249;47.838;16.490;2023-03-11T12:23:45;98083.75;;;0.82;39.26
55373;BME280;41249;47.838;16.490;2023-03-11T12:26:17;98078.81;;;0.88;39.02
55373;BME280;41249;47.838;16.490;2023-03-11T12:31:36;98067.44;;;0.86;40.28
55373;BME280;41249;47.838;16.490;2023-03-11T12:34:08;98092.97;;;0.74;40.10
55373;BME280;41249;47.838;16.490;2023-03-11T12:36:41;98097.56;;;0.70;40.58
55373;BME280;41249;47.838;16.490;2023-03-11T12:39:21;98103.03;;;0.70;40.05
55373;BME280;41249;47.838;16.490;2023-03-11T12:44:37;98124.81;;;0.67;40.41
55373;BME280;41249;47.838;16.490;2023-03-11T12:52:15;98115.34;;;0.61;40.57
55373;BME280;41249;47.838;16.490;2023-03-11T13:05:27;98127.47;;;0.63;38.92
55373;BME280;41249;47.838;16.490;2023-03-11T13:08:02;98130.97;;;0.64;39.15
55373;BME280;41249;47.838;16.490;2023-03-11T13:10:39;98147.38;;;0.64;39.09
55373;BME280;41249;47.838;16.490;2023-03-11T13:15:48;98138.03;;;0.65;40.37
55373;BME280;41249;47.838;16.490;2023-03-11T13:20:47;98165.25;;;0.61;40.00
55373;BME280;41249;47.838;16.490;2023-03-11T13:33:47;98181.94;;;0.56;40.83
55373;BME280;41249;47.838;16.490;2023-03-11T13:41:40;98195.88;;;0.51;40.51
55373;BME280;41249;47.838;16.490;2023-03-11T13:46:46;98202.97;;;0.37;40.70
55373;BME280;41249;47.838;16.490;2023-03-11T13:51:47;98215.53;;;0.41;41.08
55373;BME280;41249;47.838;16.490;2023-03-11T13:56:57;98217.41;;;0.37;40.83
55373;BME280;41249;47.838;16.490;2023-03-11T13:59:25;98224.25;;;0.47;40.73
55373;BME280;41249;47.838;16.490;2023-03-11T14:01:55;98222.13;;;0.56;40.77
55373;BME280;41249;47.838;16.490;2023-03-11T14:04:26;98228.16;;;0.65;40.95
55373;BME280;41249;47.838;16.490;2023-03-11T14:06:53;98222.13;;;0.75;41.47
55373;BME280;41249;47.838;16.490;2023-03-11T14:09:22;98232.22;;;0.90;41.36
55373;BME280;41249;47.838;16.490;2023-03-11T14:11:52;98245.72;;;0.83;41.16
55373;BME280;41249;47.838;16.490;2023-03-11T14:14:49;98229.31;;;0.64;40.51
55373;BME280;41249;47.838;16.490;2023-03-11T14:17:19;98249.25;;;0.49;40.42
55373;BME280;41249;47.838;16.490;2023-03-11T14:20:14;98253.69;;;0.38;40.53
55373;BME280;41249;47.838;16.490;2023-03-11T14:22:47;98249.03;;;0.38;40.69
55373;BME280;41249;47.838;16.490;2023-03-11T14:25:18;98250.53;;;0.36;40.93
55373;BME280;41249;47.838;16.490;2023-03-11T14:27:50;98254.78;;;0.33;40.25
55373;BME280;41249;47.838;16.490;2023-03-11T14:30:19;98251.25;;;0.33;41.23
55373;BME280;41249;47.838;16.490;2023-03-11T14:33:04;98262.31;;;0.40;41.85
55373;BME280;41249;47.838;16.490;2023-03-11T14:35:32;98253.53;;;0.31;41.78
55373;BME280;41249;47.838;16.490;2023-03-11T14:37:59;98263.91;;;0.41;42.01